Time;durP1;ratioP1;P1;durP2;ratioP2;P2;SDS_P1;SDS_P2;PMS_P1;PMS_P2;Temp;Humidity;BMP_temperature;BMP_pressure;BME280_temperature;BME280_humidity;BME280_pressure;Samples;Min_cycle;Max_cycle;Signal;HPM_P1;HPM_P2
2023/05/03 00:00:09;;;;;;;10.03;7.13;;;13.80;90.40;;;;;;5026017;28;20207;-67
2023/05/03 00:02:38;;;;;;;7.10;6.13;;;13.80;90.50;;;;;;5025355;28;20206;-67
2023/05/03 00:05:04;;;;;;;8.60;5.70;;;13.70;90.70;;;;;;5023847;28;21022;-67
2023/05/03 00:07:30;;;;;;;7.17;6.20;;;13.70;91.10;;;;;;5025108;28;20411;-67
2023/05/03 00:09:56;;;;;;;9.63;6.30;;;13.60;91.20;;;;;;5023280;28;20435;-67
2023/05/03 00:12:21;;;;;;;9.13;5.67;;;13.60;91.40;;;;;;5026221;28;20263;-67
2023/05/03 00:14:47;;;;;;;7.70;6.30;;;13.60;91.60;;;;;;5024983;28;20215;-67
2023/05/03 00:17:12;;;;;;;7.00;6.30;;;13.60;91.70;;;;;;5016406;28;20188;-67
2023/05/03 00:19:38;;;;;;;7.10;6.40;;;13.60;91.90;;;;;;5021325;28;20208;-67
2023/05/03 00:22:04;;;;;;;6.93;6.23;;;13.50;92.10;;;;;;5022536;28;20222;-67
2023/05/03 00:24:30;;;;;;;7.83;6.47;;;13.50;92.40;;;;;;5025929;28;20423;-67
2023/05/03 00:26:55;;;;;;;5.90;5.30;;;13.40;92.60;;;;;;5026387;28;20352;-67
2023/05/03 00:29:21;;;;;;;8.20;7.00;;;13.40;92.80;;;;;;5021234;28;20251;-67
2023/05/03 00:31:47;;;;;;;8.20;6.83;;;13.40;92.90;;;;;;5024409;28;20188;-67
2023/05/03 00:34:13;;;;;;;12.90;5.77;;;13.40;93.40;;;;;;5024678;28;21253;-67
2023/05/03 00:36:39;;;;;;;6.53;5.70;;;13.40;93.50;;;;;;5021966;28;20176;-66
2023/05/03 00:39:04;;;;;;;7.87;5.83;;;13.30;93.70;;;;;;5021998;28;20245;-66
2023/05/03 00:41:30;;;;;;;7.07;6.37;;;13.30;93.80;;;;;;5024258;28;20455;-66
2023/05/03 00:43:55;;;;;;;7.33;6.47;;;13.30;94.00;;;;;;5023702;28;20172;-67
2023/05/03 00:46:21;;;;;;;7.17;6.17;;;13.30;94.30;;;;;;5019721;28;20177;-67
2023/05/03 00:48:50;;;;;;;7.10;6.20;;;13.20;94.40;;;;;;5023962;28;20251;-66
2023/05/03 00:51:17;;;;;;;8.93;6.07;;;13.20;94.60;;;;;;5028309;28;20255;-66
2023/05/03 00:53:43;;;;;;;8.83;6.40;;;13.20;95.00;;;;;;5023394;28;20435;-66
2023/05/03 00:56:08;;;;;;;8.03;6.53;;;13.20;95.10;;;;;;5025314;28;20438;-66
2023/05/03 00:58:38;;;;;;;9.33;7.10;;;13.10;95.30;;;;;;5024131;28;20227;-66
2023/05/03 01:01:07;;;;;;;6.93;5.87;;;13.10;95.40;;;;;;5024461;28;20172;-67
2023/05/03 01:03:36;;;;;;;7.80;6.63;;;13.10;95.80;;;;;;5021635;28;20789;-67
2023/05/03 01:06:36;;;;;;;8.13;5.87;;;13.00;96.00;;;;;;5025539;28;20944;-67
2023/05/03 01:09:17;;;;;;;8.00;7.20;;;13.00;96.20;;;;;;5022769;28;20438;-67
2023/05/03 01:12:05;;;;;;;7.60;6.00;;;13.00;96.40;;;;;;5024673;28;21130;-67
2023/05/03 01:14:49;;;;;;;8.07;6.50;;;12.90;96.80;;;;;;5023321;28;20849;-67
2023/05/03 01:17:14;;;;;;;7.43;6.67;;;12.90;97.20;;;;;;5024467;28;20435;-67
2023/05/03 01:19:47;;;;;;;8.37;6.93;;;12.80;97.40;;;;;;5024280;28;20496;-67
2023/05/03 01:22:19;;;;;;;12.40;7.60;;;12.80;98.00;;;;;;5017704;28;20188;-67
2023/05/03 01:24:53;;;;;;;10.73;6.20;;;12.70;98.20;;;;;;5017789;28;20410;-67
2023/05/03 01:27:18;;;;;;;7.47;6.77;;;12.70;98.70;;;;;;5025021;28;20426;-67
2023/05/03 01:29:44;;;;;;;7.90;6.30;;;12.70;98.80;;;;;;5019827;28;20467;-67
2023/05/03 01:32:18;;;;;;;9.50;6.37;;;12.70;99.10;;;;;;5020604;28;20815;-67
2023/05/03 01:35:21;;;;;;;7.00;6.30;;;12.70;99.30;;;;;;5021746;28;20562;-67
2023/05/03 01:37:48;;;;;;;7.20;6.40;;;12.60;99.70;;;;;;5019032;28;20443;-67
2023/05/03 01:40:18;;;;;;;10.13;6.50;;;12.60;99.90;;;;;;5024663;28;20439;-67
2023/05/03 01:42:44;;;;;;;8.73;6.20;;;12.60;99.90;;;;;;5021171;28;20411;-67
2023/05/03 01:45:10;;;;;;;7.30;6.60;;;12.60;99.90;;;;;;5022445;28;20418;-67
2023/05/03 01:47:36;;;;;;;8.83;7.20;;;12.50;99.90;;;;;;5021030;28;20442;-67
2023/05/03 01:50:02;;;;;;;12.03;7.07;;;12.60;99.90;;;;;;5024584;28;20514;-66
2023/05/03 01:52:27;;;;;;;8.17;6.37;;;12.50;99.90;;;;;;5021870;28;20184;-66
2023/05/03 01:54:53;;;;;;;9.60;7.00;;;12.50;99.90;;;;;;5020232;28;20255;-66
2023/05/03 01:57:18;;;;;;;9.53;6.70;;;12.50;99.90;;;;;;5020777;28;20180;-66
2023/05/03 01:59:44;;;;;;;8.13;6.80;;;12.40;99.90;;;;;;5020499;28;20228;-66
2023/05/03 02:02:09;;;;;;;8.23;7.20;;;12.40;99.90;;;;;;5022560;28;20180;-66
2023/05/03 02:04:35;;;;;;;8.70;6.60;;;12.40;99.90;;;;;;5020689;28;20177;-66
2023/05/03 02:07:01;;;;;;;7.93;6.80;;;12.30;99.90;;;;;;5025214;28;20226;-67
2023/05/03 02:09:26;;;;;;;8.27;6.83;;;12.30;99.90;;;;;;5017352;28;20736;-67
2023/05/03 02:11:52;;;;;;;11.13;7.00;;;12.30;99.90;;;;;;5023876;28;20654;-66
2023/05/03 02:14:17;;;;;;;8.60;6.70;;;12.30;99.90;;;;;;5025609;28;20258;-67
2023/05/03 02:16:43;;;;;;;8.47;6.57;;;12.20;99.90;;;;;;5017640;28;20182;-66
2023/05/03 02:19:08;;;;;;;8.80;7.10;;;12.20;99.90;;;;;;5026268;28;20204;-66
2023/05/03 02:21:36;;;;;;;9.80;7.20;;;12.20;99.90;;;;;;5023971;28;20182;-66
2023/05/03 02:24:02;;;;;;;8.67;7.17;;;12.10;99.90;;;;;;5022116;28;20220;-67
2023/05/03 02:26:28;;;;;;;7.90;6.60;;;12.10;99.90;;;;;;5020102;28;20527;-66
2023/05/03 02:28:56;;;;;;;8.73;7.53;;;12.10;99.90;;;;;;5024323;28;20530;-66
2023/05/03 02:31:22;;;;;;;10.83;7.27;;;12.10;99.90;;;;;;5023737;28;20176;-66
2023/05/03 02:33:48;;;;;;;8.00;7.20;;;12.00;99.90;;;;;;5024810;28;20897;-66
2023/05/03 02:36:14;;;;;;;10.80;7.00;;;12.00;99.90;;;;;;5024097;28;20443;-66
2023/05/03 02:38:39;;;;;;;13.93;7.83;;;12.00;99.90;;;;;;5019649;28;20208;-66
2023/05/03 02:41:05;;;;;;;11.93;7.57;;;11.90;99.90;;;;;;5025841;28;20175;-66
2023/05/03 02:43:30;;;;;;;12.27;7.70;;;11.90;99.90;;;;;;5023245;28;20184;-66
2023/05/03 02:45:56;;;;;;;8.30;6.80;;;11.90;99.90;;;;;;5028145;28;20184;-66
2023/05/03 02:48:22;;;;;;;9.70;6.80;;;11.90;99.90;;;;;;5027569;28;20193;-66
2023/05/03 02:50:47;;;;;;;9.80;6.53;;;11.80;99.90;;;;;;5027135;28;20203;-66
2023/05/03 02:53:13;;;;;;;8.20;7.30;;;11.80;99.90;;;;;;5021898;28;20188;-66
2023/05/03 02:55:39;;;;;;;8.77;6.40;;;11.80;99.90;;;;;;5027568;28;20622;-66
2023/05/03 02:58:04;;;;;;;9.43;7.03;;;11.70;99.90;;;;;;5026623;28;20204;-66
2023/05/03 03:00:30;;;;;;;9.60;7.37;;;11.70;99.90;;;;;;5028239;28;20814;-67
2023/05/03 03:02:55;;;;;;;11.53;7.30;;;11.70;99.90;;;;;;5023956;28;20871;-66
2023/05/03 03:05:21;;;;;;;12.10;7.90;;;11.60;99.90;;;;;;5028040;28;20173;-67
2023/05/03 03:07:47;;;;;;;10.00;7.97;;;11.60;99.90;;;;;;5017824;28;20181;-66
2023/05/03 03:10:12;;;;;;;11.00;8.20;;;11.60;99.90;;;;;;5028505;28;20198;-66
2023/05/03 03:12:38;;;;;;;9.80;8.00;;;11.60;99.90;;;;;;5023157;28;20180;-67
2023/05/03 03:15:04;;;;;;;12.17;7.60;;;11.50;99.90;;;;;;5023466;28;20711;-66
2023/05/03 03:17:30;;;;;;;10.97;8.40;;;11.50;99.90;;;;;;5027112;28;20179;-66
2023/05/03 03:19:57;;;;;;;12.10;8.00;;;11.40;99.90;;;;;;5027341;28;20466;-67
2023/05/03 03:22:24;;;;;;;10.00;8.60;;;11.40;99.90;;;;;;5019506;28;20435;-67
2023/05/03 03:24:50;;;;;;;13.17;8.00;;;11.40;99.90;;;;;;5026540;28;20439;-67
2023/05/03 03:27:15;;;;;;;14.57;8.77;;;11.40;99.90;;;;;;5027086;28;20462;-67
2023/05/03 03:29:41;;;;;;;14.30;8.60;;;11.30;99.90;;;;;;5025599;28;20459;-67
2023/05/03 03:32:06;;;;;;;9.40;7.50;;;11.30;99.90;;;;;;5026473;28;20201;-67
2023/05/03 03:34:32;;;;;;;11.70;7.63;;;11.30;99.90;;;;;;5026398;28;20180;-67
2023/05/03 03:36:57;;;;;;;11.03;8.53;;;11.20;99.90;;;;;;5024620;28;20196;-67
2023/05/03 03:39:23;;;;;;;13.37;8.63;;;11.20;99.90;;;;;;5027359;28;20322;-67
2023/05/03 03:41:48;;;;;;;12.67;8.57;;;11.20;99.90;;;;;;5022957;28;20735;-67
2023/05/03 03:44:14;;;;;;;13.23;8.47;;;11.10;99.90;;;;;;5025308;28;20212;-67
2023/05/03 03:46:39;;;;;;;12.10;8.80;;;11.10;99.90;;;;;;5023994;28;20187;-67
2023/05/03 03:49:05;;;;;;;9.73;8.23;;;11.10;99.90;;;;;;5026548;28;20216;-67
2023/05/03 03:51:31;;;;;;;11.23;8.40;;;11.00;99.90;;;;;;5022611;28;20550;-67
2023/05/03 03:53:56;;;;;;;10.60;8.03;;;11.00;99.90;;;;;;5017270;28;20697;-67
2023/05/03 03:56:22;;;;;;;10.00;7.17;;;11.00;99.90;;;;;;5023163;28;20188;-67
2023/05/03 03:58:48;;;;;;;12.50;8.53;;;11.00;99.90;;;;;;5023502;28;20204;-67
2023/05/03 04:01:13;;;;;;;10.90;8.10;;;10.90;99.90;;;;;;5025323;28;20434;-67
2023/05/03 04:03:39;;;;;;;12.23;8.50;;;10.90;99.90;;;;;;5025153;28;20644;-67
2023/05/03 04:06:04;;;;;;;12.57;9.27;;;10.80;99.90;;;;;;5026007;28;20701;-67
2023/05/03 04:08:30;;;;;;;17.77;8.50;;;10.90;99.90;;;;;;5019692;28;20204;-67
2023/05/03 04:10:55;;;;;;;12.90;8.10;;;10.80;99.90;;;;;;5024575;28;20192;-67
2023/05/03 04:13:21;;;;;;;10.37;8.50;;;10.80;99.90;;;;;;5023884;28;20185;-67
2023/05/03 04:15:47;;;;;;;10.93;8.00;;;10.80;99.90;;;;;;5026026;28;20200;-67
2023/05/03 04:18:12;;;;;;;10.37;8.00;;;10.80;99.90;;;;;;5024777;28;20204;-67
2023/05/03 04:20:38;;;;;;;11.13;9.40;;;10.80;99.90;;;;;;5023662;28;20426;-67
2023/05/03 04:23:03;;;;;;;10.23;8.30;;;10.80;99.90;;;;;;5026020;28;20263;-67
2023/05/03 04:25:30;;;;;;;11.73;7.03;;;10.80;99.90;;;;;;5025357;28;20192;-66
2023/05/03 04:27:57;;;;;;;9.47;7.93;;;10.80;99.90;;;;;;5025129;28;20193;-67
2023/05/03 04:30:23;;;;;;;13.23;8.30;;;10.80;99.90;;;;;;5022837;28;20538;-67
2023/05/03 04:32:52;;;;;;;12.57;8.03;;;10.70;99.90;;;;;;5024748;28;20439;-67
2023/05/03 04:35:18;;;;;;;10.83;7.50;;;10.70;99.90;;;;;;5025145;28;20435;-66
2023/05/03 04:37:44;;;;;;;14.37;8.40;;;10.70;99.90;;;;;;5030681;28;21098;-67
2023/05/03 04:40:11;;;;;;;9.37;7.60;;;10.70;99.90;;;;;;5024854;28;20463;-67
2023/05/03 04:42:37;;;;;;;14.10;9.00;;;10.70;99.90;;;;;;5018973;28;20583;-67
2023/05/03 04:45:05;;;;;;;10.73;7.73;;;10.70;99.90;;;;;;5023453;28;20411;-67
2023/05/03 04:47:31;;;;;;;11.10;8.70;;;10.70;99.90;;;;;;5022630;28;20407;-67
2023/05/03 04:49:57;;;;;;;14.10;8.10;;;10.70;99.90;;;;;;5023817;28;20473;-66
2023/05/03 04:52:24;;;;;;;13.50;8.20;;;10.70;99.90;;;;;;5023809;28;20431;-67
2023/05/03 04:54:50;;;;;;;9.60;7.57;;;10.70;99.90;;;;;;5023034;28;20431;-67
2023/05/03 04:57:16;;;;;;;11.30;8.23;;;10.70;99.90;;;;;;5025528;28;20431;-67
2023/05/03 04:59:41;;;;;;;11.97;9.17;;;10.70;99.90;;;;;;5019850;28;20468;-67
2023/05/03 05:02:07;;;;;;;13.40;7.77;;;10.70;99.90;;;;;;5025954;28;20615;-67
2023/05/03 05:04:32;;;;;;;13.93;8.83;;;10.70;99.90;;;;;;5023821;28;20181;-67
2023/05/03 05:06:58;;;;;;;12.23;7.50;;;10.70;99.90;;;;;;5021646;28;20189;-67
2023/05/03 05:09:26;;;;;;;12.87;8.73;;;10.70;99.90;;;;;;5024340;28;20712;-67
2023/05/03 05:11:51;;;;;;;14.47;8.70;;;10.70;99.90;;;;;;5023202;28;22894;-67
2023/05/03 05:14:17;;;;;;;11.17;7.90;;;10.80;99.90;;;;;;5025153;28;20467;-67
2023/05/03 05:16:43;;;;;;;11.87;8.93;;;10.70;99.90;;;;;;5017365;28;20180;-67
2023/05/03 05:19:08;;;;;;;9.90;8.50;;;10.80;99.90;;;;;;5024631;28;20208;-67
2023/05/03 05:21:34;;;;;;;11.13;8.40;;;10.70;99.90;;;;;;5023832;28;20611;-66
2023/05/03 05:24:00;;;;;;;14.70;8.80;;;10.80;99.90;;;;;;5022821;28;20741;-67
2023/05/03 05:26:29;;;;;;;12.20;9.23;;;10.80;99.90;;;;;;5020790;28;20189;-66
2023/05/03 05:28:54;;;;;;;12.87;8.77;;;10.80;99.90;;;;;;5022446;28;20454;-66
2023/05/03 05:31:20;;;;;;;14.03;8.47;;;10.80;99.90;;;;;;5025166;28;20986;-66
2023/05/03 05:33:46;;;;;;;10.03;7.30;;;10.80;99.90;;;;;;5025756;28;20203;-66
2023/05/03 05:36:13;;;;;;;11.33;8.20;;;10.90;99.90;;;;;;5025219;28;20435;-66
2023/05/03 05:38:39;;;;;;;14.60;9.13;;;10.80;99.90;;;;;;5026440;28;20238;-66
2023/05/03 05:41:05;;;;;;;11.30;8.30;;;10.80;99.90;;;;;;5025243;28;20460;-66
2023/05/03 05:43:30;;;;;;;10.13;9.00;;;10.80;99.90;;;;;;5023187;28;20473;-66
2023/05/03 05:45:56;;;;;;;13.90;9.80;;;10.80;99.90;;;;;;5023857;28;20685;-67
2023/05/03 05:48:21;;;;;;;12.00;8.63;;;10.80;99.90;;;;;;5023867;28;20224;-67
2023/05/03 05:50:47;;;;;;;15.97;9.03;;;10.90;99.90;;;;;;5017764;28;20262;-67
2023/05/03 05:53:13;;;;;;;13.40;8.73;;;10.90;99.90;;;;;;5021256;28;20264;-67
2023/05/03 05:55:38;;;;;;;18.00;9.37;;;10.90;99.90;;;;;;5021298;28;20477;-67
2023/05/03 05:58:04;;;;;;;12.93;8.93;;;11.00;99.90;;;;;;5019516;28;20208;-67
2023/05/03 06:00:30;;;;;;;11.80;8.20;;;11.00;99.90;;;;;;5023810;28;20255;-67
2023/05/03 06:02:55;;;;;;;13.97;9.00;;;11.00;99.90;;;;;;5020614;28;20702;-67
2023/05/03 06:05:21;;;;;;;10.87;8.57;;;11.00;99.90;;;;;;5024501;28;20259;-67
2023/05/03 06:07:47;;;;;;;13.40;8.43;;;11.10;99.90;;;;;;5019913;28;20191;-67
2023/05/03 06:10:13;;;;;;;10.17;9.07;;;11.10;99.90;;;;;;5018745;28;20221;-66
2023/05/03 06:12:38;;;;;;;15.03;8.47;;;11.20;99.90;;;;;;5017855;28;20443;-67
2023/05/03 06:15:04;;;;;;;10.83;8.13;;;11.20;99.90;;;;;;5013479;28;20571;-66
2023/05/03 06:17:30;;;;;;;13.50;8.83;;;11.30;99.90;;;;;;5028664;28;20216;-66
2023/05/03 06:19:57;;;;;;;12.00;8.93;;;11.40;99.90;;;;;;5024300;28;20528;-66
2023/05/03 06:22:22;;;;;;;10.30;9.03;;;11.40;99.90;;;;;;5020935;28;20192;-66
2023/05/03 06:24:48;;;;;;;11.80;9.23;;;11.40;99.90;;;;;;5028177;28;20426;-66
2023/05/03 06:27:13;;;;;;;16.20;8.70;;;11.50;99.90;;;;;;5025739;28;20196;-66
2023/05/03 06:29:39;;;;;;;11.70;9.17;;;11.50;99.90;;;;;;5029001;28;20211;-67
2023/05/03 06:32:05;;;;;;;17.63;9.00;;;11.50;99.90;;;;;;5029338;28;20548;-66
2023/05/03 06:34:30;;;;;;;12.87;9.20;;;11.50;99.90;;;;;;5024521;28;20182;-66
2023/05/03 06:36:56;;;;;;;10.77;8.33;;;11.60;99.90;;;;;;5027969;28;20192;-67
2023/05/03 06:39:21;;;;;;;15.13;9.80;;;11.60;99.90;;;;;;5013985;28;20213;-66
2023/05/03 06:41:47;;;;;;;11.40;9.13;;;11.70;99.90;;;;;;5027962;28;20184;-66
2023/05/03 06:44:13;;;;;;;12.93;8.70;;;11.70;99.90;;;;;;5032200;28;20939;-66
2023/05/03 06:46:38;;;;;;;12.40;9.00;;;11.80;99.90;;;;;;5022698;28;20219;-65
2023/05/03 06:49:04;;;;;;;12.57;8.87;;;11.90;99.90;;;;;;5019371;28;20208;-65
2023/05/03 06:51:31;;;;;;;18.33;8.87;;;11.90;99.90;;;;;;5014259;28;20196;-65
2023/05/03 06:54:00;;;;;;;14.50;12.83;;;11.90;99.90;;;;;;5023955;28;20199;-66
2023/05/03 06:56:27;;;;;;;19.13;10.80;;;12.00;99.90;;;;;;5022265;28;20443;-66
2023/05/03 06:58:53;;;;;;;15.47;10.10;;;12.10;99.90;;;;;;5017330;28;20454;-65
2023/05/03 07:01:19;;;;;;;15.97;9.70;;;12.20;99.90;;;;;;5022833;28;20807;-66
2023/05/03 07:03:45;;;;;;;17.93;13.77;;;12.20;99.90;;;;;;5025435;28;20188;-66
2023/05/03 07:06:11;;;;;;;13.20;10.27;;;12.30;99.90;;;;;;5026364;28;20465;-66
2023/05/03 07:08:36;;;;;;;17.47;10.07;;;12.30;99.90;;;;;;5017213;28;20446;-65
2023/05/03 07:11:03;;;;;;;12.50;9.17;;;12.40;99.90;;;;;;5022234;28;20207;-65
2023/05/03 07:13:28;;;;;;;14.37;8.90;;;12.40;99.90;;;;;;5022906;28;20936;-66
2023/05/03 07:15:54;;;;;;;16.17;8.77;;;12.50;99.90;;;;;;5025139;28;20475;-65
2023/05/03 07:18:20;;;;;;;13.43;9.07;;;12.60;99.90;;;;;;5026269;28;20291;-66
2023/05/03 07:20:45;;;;;;;11.00;9.00;;;12.70;99.90;;;;;;5025045;28;20193;-67
2023/05/03 07:23:11;;;;;;;14.50;8.43;;;12.70;99.90;;;;;;5024524;28;20192;-67
2023/05/03 07:25:38;;;;;;;12.80;9.30;;;12.80;99.90;;;;;;5025176;28;20192;-67
2023/05/03 07:28:04;;;;;;;10.17;8.73;;;12.80;99.90;;;;;;5025149;28;20207;-67
2023/05/03 07:30:29;;;;;;;12.13;8.30;;;12.90;99.90;;;;;;5025838;28;20403;-67
2023/05/03 07:32:55;;;;;;;11.80;8.90;;;12.90;99.90;;;;;;5024074;28;20435;-67
2023/05/03 07:35:22;;;;;;;14.50;9.57;;;12.90;99.90;;;;;;5022929;28;20184;-67
2023/05/03 07:37:47;;;;;;;13.27;9.47;;;13.00;99.90;;;;;;5025463;28;21892;-67
2023/05/03 07:40:13;;;;;;;11.37;9.40;;;13.00;99.90;;;;;;5019746;28;20478;-67
2023/05/03 07:42:39;;;;;;;11.67;8.80;;;13.10;99.90;;;;;;5012514;28;20221;-67
2023/05/03 07:45:05;;;;;;;10.90;8.23;;;13.20;99.90;;;;;;5016591;28;20177;-67
2023/05/03 07:47:32;;;;;;;11.87;8.70;;;13.20;99.90;;;;;;5024441;28;20267;-67
2023/05/03 07:49:57;;;;;;;11.87;9.20;;;13.30;99.90;;;;;;5012326;28;20443;-67
2023/05/03 07:52:23;;;;;;;10.87;8.97;;;13.40;99.90;;;;;;5022557;28;20438;-67
2023/05/03 07:54:48;;;;;;;15.57;9.70;;;13.40;99.90;;;;;;5023218;28;20277;-67
2023/05/03 07:57:15;;;;;;;17.10;10.10;;;13.50;99.90;;;;;;5018455;28;20181;-67
2023/05/03 07:59:42;;;;;;;13.90;9.00;;;13.50;99.90;;;;;;5020420;28;20243;-67
2023/05/03 08:02:08;;;;;;;13.53;10.23;;;13.60;99.90;;;;;;5026011;28;20971;-67
2023/05/03 08:04:34;;;;;;;14.30;10.80;;;13.70;99.90;;;;;;5021039;28;20435;-67
2023/05/03 08:07:01;;;;;;;12.37;9.20;;;13.70;99.90;;;;;;5024522;28;20431;-67
2023/05/03 08:09:27;;;;;;;11.93;8.40;;;13.80;99.90;;;;;;5022844;28;20435;-67
2023/05/03 08:11:55;;;;;;;11.53;9.20;;;13.90;99.90;;;;;;5018334;28;20478;-66
2023/05/03 08:14:20;;;;;;;11.40;8.47;;;13.90;99.90;;;;;;5030253;28;20810;-66
2023/05/03 08:16:46;;;;;;;13.03;9.30;;;14.00;99.90;;;;;;5027263;28;20472;-66
2023/05/03 08:19:11;;;;;;;13.40;9.30;;;14.00;99.90;;;;;;5019850;28;20228;-66
2023/05/03 08:21:37;;;;;;;15.20;9.67;;;14.10;99.90;;;;;;5016289;28;20263;-65
2023/05/03 08:24:05;;;;;;;12.83;10.20;;;14.20;99.90;;;;;;5020298;28;20181;-66
2023/05/03 08:26:31;;;;;;;18.40;11.33;;;14.30;99.90;;;;;;5018203;28;20458;-66
2023/05/03 08:28:57;;;;;;;16.00;10.40;;;14.30;99.90;;;;;;5020233;28;20455;-66
2023/05/03 08:31:23;;;;;;;17.63;10.73;;;14.40;99.90;;;;;;5022672;28;20489;-66
2023/05/03 08:33:49;;;;;;;13.77;9.13;;;14.40;99.90;;;;;;5021298;28;20212;-66
2023/05/03 08:36:14;;;;;;;13.47;9.63;;;14.40;99.90;;;;;;5024686;28;20181;-66
2023/05/03 08:38:40;;;;;;;11.20;8.80;;;14.50;99.90;;;;;;5018768;28;20653;-66
2023/05/03 08:41:22;;;;;;;15.40;9.80;;;14.50;99.90;;;;;;5015300;28;20228;-66
2023/05/03 08:43:54;;;;;;;16.33;9.60;;;14.60;99.90;;;;;;5026367;28;20569;-66
2023/05/03 08:46:20;;;;;;;12.70;8.47;;;14.70;99.90;;;;;;5023778;28;20494;-66
2023/05/03 08:48:51;;;;;;;11.43;9.53;;;14.80;99.90;;;;;;5023445;28;20466;-66
2023/05/03 08:51:18;;;;;;;15.33;9.50;;;14.80;99.90;;;;;;5020092;28;20435;-66
2023/05/03 08:53:44;;;;;;;13.40;9.97;;;14.90;99.90;;;;;;5024308;28;20782;-66
2023/05/03 08:56:15;;;;;;;16.57;10.10;;;15.00;99.90;;;;;;5022065;28;20999;-66
2023/05/03 08:58:40;;;;;;;15.27;9.90;;;15.00;99.90;;;;;;5024183;28;20576;-66
2023/05/03 09:01:08;;;;;;;9.63;8.60;;;15.10;99.90;;;;;;5023738;28;20423;-66
2023/05/03 09:03:34;;;;;;;12.23;9.30;;;15.20;99.90;;;;;;5024463;28;20271;-67
2023/05/03 09:06:01;;;;;;;14.40;9.70;;;15.30;99.90;;;;;;5023157;28;20430;-66
2023/05/03 09:08:31;;;;;;;12.30;9.53;;;15.30;99.90;;;;;;5023266;28;20457;-67
2023/05/03 09:10:57;;;;;;;12.90;10.13;;;15.30;99.90;;;;;;5019665;28;20443;-67
2023/05/03 09:13:30;;;;;;;11.77;10.10;;;15.30;99.90;;;;;;5022063;28;20445;-66
2023/05/03 09:15:57;;;;;;;13.40;10.03;;;15.40;99.90;;;;;;5023910;28;20207;-66
2023/05/03 09:18:23;;;;;;;12.20;9.53;;;15.50;99.90;;;;;;5024367;28;20841;-66
2023/05/03 09:20:50;;;;;;;11.80;9.90;;;15.60;99.90;;;;;;5023826;28;20447;-66
2023/05/03 09:23:18;;;;;;;14.67;11.53;;;15.60;99.90;;;;;;5022361;28;20530;-66
2023/05/03 09:25:46;;;;;;;14.47;9.83;;;15.70;99.90;;;;;;5015905;28;20430;-67
2023/05/03 09:28:12;;;;;;;12.40;9.10;;;15.70;99.90;;;;;;5022003;28;20805;-66
2023/05/03 09:30:38;;;;;;;14.57;10.30;;;15.80;99.90;;;;;;5014002;28;20990;-66
2023/05/03 09:33:04;;;;;;;10.43;9.40;;;15.90;99.90;;;;;;5016128;28;20479;-67
2023/05/03 09:35:33;;;;;;;11.33;9.97;;;15.90;99.90;;;;;;5017858;28;20188;-66
2023/05/03 09:37:59;;;;;;;13.70;9.40;;;16.00;99.90;;;;;;5020038;28;20553;-66
2023/05/03 09:40:26;;;;;;;15.53;9.43;;;16.10;99.90;;;;;;5015857;28;20482;-66
2023/05/03 09:43:11;;;;;;;11.93;10.03;;;16.20;99.90;;;;;;5017108;28;20504;-67
2023/05/03 09:45:38;;;;;;;11.90;8.27;;;16.30;99.90;;;;;;5010766;28;20438;-67
2023/05/03 09:48:05;;;;;;;14.07;8.97;;;16.30;99.90;;;;;;5019098;28;20459;-67
2023/05/03 09:50:32;;;;;;;13.00;9.17;;;16.40;99.90;;;;;;5019420;28;20474;-68
2023/05/03 09:53:02;;;;;;;13.20;9.20;;;16.60;99.90;;;;;;5017678;28;20497;-67
2023/05/03 09:55:32;;;;;;;14.20;9.73;;;16.60;99.90;;;;;;5019168;28;20492;-67
2023/05/03 09:57:58;;;;;;;10.77;9.50;;;16.70;99.90;;;;;;5018570;28;21007;-68
2023/05/03 10:00:24;;;;;;;10.57;8.67;;;16.80;99.90;;;;;;5017425;28;20561;-67
2023/05/03 10:02:52;;;;;;;10.17;8.83;;;16.80;99.90;;;;;;5015267;28;20441;-67
2023/05/03 10:05:19;;;;;;;11.40;10.07;;;16.90;99.90;;;;;;5020105;28;20505;-67
2023/05/03 10:07:48;;;;;;;11.90;9.50;;;17.00;99.90;;;;;;5016546;28;20438;-68
2023/05/03 10:10:14;;;;;;;13.27;10.37;;;17.10;99.90;;;;;;5020045;28;20499;-68
2023/05/03 10:12:40;;;;;;;14.30;9.50;;;17.10;99.90;;;;;;5020167;28;20447;-68
2023/05/03 10:15:09;;;;;;;12.07;9.13;;;17.10;99.90;;;;;;5017683;28;20196;-67
2023/05/03 10:17:37;;;;;;;10.33;9.23;;;17.20;99.90;;;;;;5020727;28;20653;-68
2023/05/03 10:20:18;;;;;;;10.80;9.30;;;17.30;99.90;;;;;;5018711;28;20471;-67
2023/05/03 10:23:08;;;;;;;12.53;9.47;;;17.40;99.90;;;;;;5018868;28;20438;-67
2023/05/03 10:25:36;;;;;;;12.20;9.50;;;17.40;99.90;;;;;;5013039;28;21004;-67
2023/05/03 10:28:08;;;;;;;9.50;8.50;;;17.50;99.90;;;;;;5015494;28;20459;-68
2023/05/03 10:30:38;;;;;;;11.90;10.70;;;17.60;99.90;;;;;;5019889;28;20542;-67
2023/05/03 10:33:13;;;;;;;10.47;8.70;;;17.70;99.90;;;;;;5019895;28;20428;-67
2023/05/03 10:35:40;;;;;;;11.73;9.37;;;17.80;99.90;;;;;;5022187;28;20416;-67
2023/05/03 10:38:23;;;;;;;14.30;9.67;;;17.90;99.90;;;;;;5017790;28;20451;-67
2023/05/03 10:40:48;;;;;;;11.20;9.20;;;18.00;99.90;;;;;;5015628;28;20549;-67
2023/05/03 10:43:40;;;;;;;9.70;8.07;;;18.20;99.90;;;;;;5019003;28;21241;-66
2023/05/03 10:46:28;;;;;;;8.83;7.80;;;18.30;99.90;;;;;;5011507;28;20212;-67
2023/05/03 10:49:14;;;;;;;16.40;11.43;;;18.40;99.90;;;;;;5019509;28;20493;-67
2023/05/03 10:51:42;;;;;;;10.17;9.17;;;18.50;99.90;;;;;;5017573;28;20439;-67
2023/05/03 10:54:08;;;;;;;12.50;8.40;;;18.70;99.90;;;;;;5020632;28;20443;-67
2023/05/03 10:56:50;;;;;;;11.50;8.20;;;18.90;99.90;;;;;;5019342;28;20944;-67
2023/05/03 10:59:15;;;;;;;13.30;8.37;;;19.10;99.90;;;;;;5015552;28;20614;-68
2023/05/03 11:01:44;;;;;;;9.17;8.07;;;19.20;99.90;;;;;;5002229;28;20477;-67
2023/05/03 11:04:19;;;;;;;8.83;7.93;;;19.30;99.90;;;;;;5023162;28;20271;-67
2023/05/03 11:06:48;;;;;;;10.20;7.47;;;19.30;99.90;;;;;;5021203;28;20438;-67
2023/05/03 11:09:14;;;;;;;13.37;7.80;;;19.50;99.90;;;;;;5020306;28;20466;-68
2023/05/03 11:11:40;;;;;;;12.63;7.83;;;19.60;99.90;;;;;;5023021;28;20523;-68
2023/05/03 11:14:07;;;;;;;8.50;7.60;;;19.80;99.90;;;;;;5023742;28;20979;-68
2023/05/03 11:16:35;;;;;;;8.83;7.93;;;20.00;99.90;;;;;;5018530;28;20438;-68
2023/05/03 11:19:01;;;;;;;9.43;7.90;;;20.10;99.90;;;;;;5020774;28;20479;-68
2023/05/03 11:21:27;;;;;;;9.30;7.53;;;20.30;99.90;;;;;;5026023;28;20427;-68
2023/05/03 11:23:53;;;;;;;8.47;7.60;;;20.50;99.90;;;;;;5019086;28;20522;-68
2023/05/03 11:26:24;;;;;;;9.60;7.73;;;20.70;99.90;;;;;;5017163;28;20530;-68
2023/05/03 11:28:50;;;;;;;8.43;7.30;;;20.90;99.90;;;;;;5015772;28;20223;-68
2023/05/03 11:31:16;;;;;;;8.57;7.77;;;20.90;99.90;;;;;;5021827;28;20440;-68
2023/05/03 11:33:42;;;;;;;8.93;7.67;;;21.00;99.90;;;;;;5021268;28;20226;-67
2023/05/03 11:36:08;;;;;;;8.73;7.83;;;21.20;99.90;;;;;;5021205;28;20924;-67
2023/05/03 11:38:35;;;;;;;10.03;8.70;;;21.20;99.90;;;;;;5022072;28;20216;-68
2023/05/03 11:41:11;;;;;;;9.23;7.57;;;21.30;99.90;;;;;;5015022;28;20453;-68
2023/05/03 11:43:48;;;;;;;8.70;7.67;;;21.30;99.90;;;;;;5020413;28;20436;-68
2023/05/03 11:46:18;;;;;;;8.20;7.40;;;21.60;99.90;;;;;;5019797;28;20435;-68
2023/05/03 11:48:44;;;;;;;9.17;7.90;;;21.80;99.90;;;;;;5014002;28;20467;-68
2023/05/03 11:51:11;;;;;;;7.87;7.07;;;22.10;99.90;;;;;;5022752;28;20543;-69
2023/05/03 11:53:38;;;;;;;9.30;7.53;;;22.50;99.90;;;;;;5019178;28;20174;-69
2023/05/03 11:56:21;;;;;;;9.07;8.07;;;22.80;99.90;;;;;;5019105;28;20960;-65
2023/05/03 11:58:56;;;;;;;9.10;7.57;;;23.10;99.60;;;;;;5018991;28;20913;-67
2023/05/03 12:01:23;;;;;;;7.17;6.47;;;23.10;98.60;;;;;;5013549;28;20427;-67
2023/05/03 12:03:56;;;;;;;11.33;7.77;;;23.80;97.30;;;;;;5019944;28;20544;-66
2023/05/03 12:06:22;;;;;;;8.30;7.57;;;25.20;97.00;;;;;;5020426;28;20438;-67
2023/05/03 12:08:48;;;;;;;7.53;6.73;;;26.80;94.30;;;;;;5020474;28;20459;-67
2023/05/03 12:11:13;;;;;;;8.07;6.73;;;27.90;89.80;;;;;;5022840;28;20559;-66
2023/05/03 12:13:40;;;;;;;7.33;6.63;;;29.00;82.60;;;;;;5019534;28;20193;-67
2023/05/03 12:16:07;;;;;;;7.17;6.57;;;28.70;76.60;;;;;;5022231;28;20199;-67
2023/05/03 12:19:04;;;;;;;7.77;6.87;;;28.50;75.50;;;;;;5021254;28;20510;-67
2023/05/03 12:21:47;;;;;;;9.40;6.80;;;29.70;72.70;;;;;;5018035;28;20451;-67
2023/05/03 12:24:16;;;;;;;6.80;6.17;;;30.50;66.80;;;;;;5019071;28;20454;-67
2023/05/03 12:26:43;;;;;;;7.63;6.17;;;31.10;62.60;;;;;;5014456;28;20451;-67
2023/05/03 12:29:08;;;;;;;7.47;6.73;;;31.80;60.00;;;;;;5015288;28;20463;-67
2023/05/03 12:31:34;;;;;;;7.67;6.20;;;32.40;57.40;;;;;;5021847;28;20450;-67
2023/05/03 12:33:59;;;;;;;8.50;6.23;;;32.80;55.50;;;;;;5013642;28;20192;-67
2023/05/03 12:36:26;;;;;;;6.30;5.70;;;33.50;54.50;;;;;;5020317;28;20200;-68
2023/05/03 12:38:52;;;;;;;6.50;5.90;;;34.00;52.30;;;;;;5018487;28;20216;-68
2023/05/03 12:41:17;;;;;;;8.07;6.27;;;34.60;51.30;;;;;;5021428;28;20932;-67